Time;durP1;ratioP1;P1;durP2;ratioP2;P2;SDS_P1;SDS_P2;PMS_P1;PMS_P2;Temp;Humidity;BMP_temperature;BMP_pressure;BME280_temperature;BME280_humidity;BME280_pressure;Samples;Min_cycle;Max_cycle;Signal;HPM_P1;HPM_P2
2023/06/12 00:00:15;;;;;;;8.70;6.70;;;;;;;20.44;100.00;100830.09;2057931;28;20419;-72
2023/06/12 00:01:17;;;;;;;10.70;6.93;;;;;;;20.49;100.00;100849.88;2057164;28;20273;-72
2023/06/12 00:02:18;;;;;;;9.27;6.80;;;;;;;20.42;100.00;100839.03;2057319;28;20181;-72
2023/06/12 00:03:21;;;;;;;9.17;6.43;;;;;;;20.46;100.00;100858.56;2057896;28;20927;-72
2023/06/12 00:04:21;;;;;;;8.77;6.77;;;;;;;20.44;100.00;100847.00;2057936;28;20845;-72
2023/06/12 00:05:23;;;;;;;7.87;6.90;;;;;;;20.40;100.00;100844.41;2057824;28;20477;-72
2023/06/12 00:06:24;;;;;;;8.80;6.53;;;;;;;20.42;100.00;100853.13;2063968;28;20187;-72
2023/06/12 00:07:28;;;;;;;9.10;6.27;;;;;;;20.41;100.00;100850.81;2065939;28;20506;-72
2023/06/12 00:08:31;;;;;;;9.07;6.53;;;;;;;20.37;100.00;100855.88;2065943;28;20185;-72
2023/06/12 00:09:32;;;;;;;7.60;6.80;;;;;;;19.03;100.00;100663.38;2065920;28;20417;-72
2023/06/12 00:10:33;;;;;;;9.33;6.97;;;;;;;20.35;100.00;100859.19;2065953;28;20426;-72
2023/06/12 00:11:33;;;;;;;10.63;6.60;;;;;;;20.22;100.00;100849.56;2064697;28;20425;-72
2023/06/12 00:12:33;;;;;;;13.23;7.47;;;;;;;20.31;100.00;100861.44;2065345;28;20676;-73
2023/06/12 00:13:35;;;;;;;8.30;6.87;;;;;;;20.33;100.00;100872.97;2065732;28;20190;-72
2023/06/12 00:14:35;;;;;;;9.17;7.43;;;;;;;20.33;100.00;100875.00;2065792;28;20174;-73
2023/06/12 00:15:54;;;;;;;10.07;7.10;;;;;;;19.43;100.00;100733.69;2065811;28;20428;-72
2023/06/12 00:16:54;;;;;;;14.40;7.00;;;;;;;19.92;100.00;100809.50;2065893;28;20230;-72
2023/06/12 00:17:55;;;;;;;13.07;6.50;;;;;;;20.29;100.00;100868.81;2065229;28;20571;-72
2023/06/12 00:18:55;;;;;;;9.53;6.93;;;;;;;19.14;100.00;100697.22;2065060;28;20234;-72
2023/06/12 00:19:56;;;;;;;11.07;6.93;;;;;;;20.23;100.00;100870.78;2065775;28;20189;-72
2023/06/12 00:20:56;;;;;;;10.97;7.73;;;;;;;20.24;100.00;100881.56;2065776;28;20186;-72
2023/06/12 00:21:57;;;;;;;10.07;7.37;;;;;;;20.29;100.00;100869.59;2065753;28;20186;-72
2023/06/12 00:22:58;;;;;;;12.27;7.53;;;;;;;20.28;100.00;100868.06;2065735;28;20178;-73
2023/06/12 00:23:58;;;;;;;11.07;7.13;;;;;;;20.33;100.00;100872.97;2065777;28;20674;-72
2023/06/12 00:24:59;;;;;;;14.83;7.37;;;;;;;20.34;100.00;100874.53;2065671;28;20809;-72
2023/06/12 00:25:59;;;;;;;24.23;8.87;;;;;;;20.35;100.00;100873.25;2065830;28;20182;-72
2023/06/12 00:27:00;;;;;;;16.13;7.77;;;;;;;20.36;100.00;100874.78;2065910;28;20178;-72
2023/06/12 00:28:00;;;;;;;14.97;7.47;;;;;;;20.39;100.00;100875.84;2065771;28;20202;-73
2023/06/12 00:29:01;;;;;;;14.07;7.17;;;;;;;20.44;100.00;100872.31;2065743;28;20237;-72
2023/06/12 00:30:04;;;;;;;14.37;8.40;;;;;;;20.46;100.00;100881.06;2065731;28;20718;-73
2023/06/12 00:31:04;;;;;;;8.43;6.53;;;;;;;20.44;100.00;100867.47;2065677;28;20432;-72
2023/06/12 00:32:05;;;;;;;9.77;6.80;;;;;;;19.95;100.00;100793.69;2065721;28;20941;-72
2023/06/12 00:33:05;;;;;;;8.17;6.10;;;;;;;20.52;100.00;100879.84;2065798;28;20210;-72
2023/06/12 00:34:06;;;;;;;9.13;6.50;;;;;;;20.07;100.00;100807.41;2065897;28;20190;-72
2023/06/12 00:35:07;;;;;;;11.47;6.17;;;;;;;20.43;100.00;100871.56;2065732;28;20593;-72
2023/06/12 00:36:07;;;;;;;17.17;7.67;;;;;;;20.39;100.00;100868.19;2065721;28;20670;-72
2023/06/12 00:37:07;;;;;;;12.57;6.37;;;;;;;20.30;100.00;100871.16;2065743;28;20666;-72
2023/06/12 00:38:08;;;;;;;9.73;6.37;;;;;;;19.61;100.00;100772.81;2065677;28;20197;-72
2023/06/12 00:39:09;;;;;;;12.17;6.13;;;;;;;20.21;100.00;100868.47;2065762;28;20179;-72
2023/06/12 00:40:10;;;;;;;11.53;6.47;;;;;;;19.50;100.00;100775.44;2064856;28;20209;-72
2023/06/12 00:41:10;;;;;;;9.93;6.80;;;;;;;20.05;100.00;100868.25;2057642;28;20179;-72
2023/06/12 00:42:10;;;;;;;10.00;6.67;;;;;;;20.01;100.00;100874.06;2057733;28;20190;-72
2023/06/12 00:43:11;;;;;;;10.40;6.53;;;;;;;20.01;100.00;100871.25;2057605;28;20202;-72
2023/06/12 00:44:11;;;;;;;12.53;6.30;;;;;;;19.96;100.00;100883.19;2057733;28;20266;-72
2023/06/12 00:45:16;;;;;;;9.37;6.53;;;;;;;19.85;100.00;100887.91;2058434;28;20264;-72
2023/06/12 00:46:18;;;;;;;12.67;7.20;;;;;;;19.75;100.00;100881.59;2065708;28;20221;-72
2023/06/12 00:47:20;;;;;;;11.73;6.83;;;;;;;19.61;100.00;100874.00;2065589;28;20952;-72
2023/06/12 00:48:20;;;;;;;10.67;6.43;;;;;;;19.61;100.00;100885.25;2065658;28;20425;-72
2023/06/12 00:49:20;;;;;;;9.07;6.33;;;;;;;19.52;100.00;100893.00;2065606;28;20941;-72
2023/06/12 00:50:25;;;;;;;8.80;6.53;;;;;;;19.41;100.00;100890.81;2065734;28;20287;-72
2023/06/12 00:51:28;;;;;;;8.53;6.40;;;;;;;19.39;100.00;100890.50;2065090;28;20182;-72
2023/06/12 00:52:34;;;;;;;7.73;6.10;;;;;;;19.37;100.00;100897.88;2065006;28;20511;-72
2023/06/12 00:53:35;;;;;;;10.73;6.90;;;;;;;19.33;100.00;100900.09;2065627;28;20409;-72
2023/06/12 00:54:36;;;;;;;8.40;6.87;;;;;;;18.56;100.00;100795.59;2065614;28;21090;-72
2023/06/12 00:55:36;;;;;;;9.53;6.37;;;;;;;19.33;100.00;100903.69;2065616;28;20183;-72
2023/06/12 00:56:36;;;;;;;11.87;7.07;;;;;;;19.31;100.00;100903.41;2065542;28;20185;-72
2023/06/12 00:57:44;;;;;;;8.97;6.77;;;;;;;19.30;100.00;100909.50;2065571;28;20232;-72
2023/06/12 00:58:44;;;;;;;10.70;6.60;;;;;;;19.33;100.00;100898.06;2065639;28;20679;-73
2023/06/12 00:59:45;;;;;;;8.57;6.20;;;;;;;19.19;100.00;100881.19;2065517;28;20450;-72
2023/06/12 01:00:48;;;;;;;7.83;6.10;;;;;;;19.38;100.00;100903.00;2065572;28;20181;-72
2023/06/12 01:01:48;;;;;;;9.37;6.60;;;;;;;19.36;100.00;100908.34;2069753;28;20208;-72
2023/06/12 01:02:53;;;;;;;10.27;6.47;;;;;;;19.28;100.00;100895.16;2073620;28;20412;-72
2023/06/12 01:03:57;;;;;;;9.60;6.87;;;;;;;18.69;100.00;100812.16;2070299;28;20215;-72
2023/06/12 01:04:59;;;;;;;13.20;7.53;;;;;;;19.39;100.00;100898.94;2065385;28;20417;-72
2023/06/12 01:06:04;;;;;;;8.97;6.37;;;;;;;19.06;100.00;100869.47;2065476;28;20418;-72
2023/06/12 01:07:14;;;;;;;7.33;6.50;;;;;;;19.33;100.00;100902.91;2065433;28;20416;-72
2023/06/12 01:08:43;;;;;;;10.27;6.50;;;;;;;19.30;100.00;100909.50;2065620;28;20976;-72
2023/06/12 01:09:47;;;;;;;10.80;7.17;;;;;;;19.22;100.00;100905.53;2065571;28;21030;-72
2023/06/12 01:11:08;;;;;;;9.43;6.80;;;;;;;19.15;100.00;100908.69;2065446;28;20919;-72
2023/06/12 01:12:11;;;;;;;9.77;6.77;;;;;;;19.20;100.00;100913.66;2065579;28;20413;-72
2023/06/12 01:13:13;;;;;;;11.37;6.67;;;;;;;19.25;100.00;100915.81;2065377;28;20423;-72
2023/06/12 01:14:17;;;;;;;10.53;6.93;;;;;;;19.29;100.00;100916.41;2065469;28;20449;-72
2023/06/12 01:15:18;;;;;;;8.63;6.50;;;;;;;19.29;100.00;100919.22;2065573;28;20425;-72
2023/06/12 01:16:18;;;;;;;9.27;6.63;;;;;;;19.35;100.00;100920.06;2064630;28;20435;-72
2023/06/12 01:17:18;;;;;;;8.83;6.47;;;;;;;19.32;100.00;100915.41;2064782;28;20660;-72
2023/06/12 01:18:21;;;;;;;10.97;6.57;;;;;;;19.35;100.00;100912.41;2065447;28;20555;-72
2023/06/12 01:19:21;;;;;;;9.93;6.53;;;;;;;19.47;100.00;100922.59;2065345;28;20242;-72
2023/06/12 01:20:21;;;;;;;9.37;7.00;;;;;;;19.32;100.00;100890.91;2065392;28;20440;-72
2023/06/12 01:21:29;;;;;;;8.80;6.40;;;;;;;19.51;100.00;100917.53;2065222;28;20291;-72
2023/06/12 01:22:32;;;;;;;12.07;7.30;;;;;;;19.50;100.00;100913.16;2065341;28;20587;-72
2023/06/12 01:23:39;;;;;;;11.47;6.83;;;;;;;19.61;100.00;100918.19;2064534;28;20941;-72
2023/06/12 01:24:48;;;;;;;8.57;6.97;;;;;;;19.52;100.00;100919.09;2065354;28;20421;-72
2023/06/12 01:26:13;;;;;;;8.00;6.40;;;;;;;19.57;100.00;100920.44;2064748;28;20449;-72
2023/06/12 01:27:32;;;;;;;10.30;6.83;;;;;;;19.61;100.00;100918.19;2064717;28;20449;-72
2023/06/12 01:28:32;;;;;;;8.33;6.40;;;;;;;19.58;100.00;100919.16;2064863;28;20450;-72
2023/06/12 01:29:58;;;;;;;8.90;6.27;;;;;;;19.64;100.00;100918.00;2065225;28;20939;-72
2023/06/12 01:31:13;;;;;;;8.63;6.87;;;;;;;19.67;100.00;100914.22;2064620;28;20193;-72
2023/06/12 01:32:17;;;;;;;7.90;6.07;;;;;;;19.68;100.00;100918.56;2064834;28;20448;-72
2023/06/12 01:33:20;;;;;;;11.00;6.53;;;;;;;19.51;100.00;100889.44;2065075;28;20452;-72
2023/06/12 01:34:26;;;;;;;12.33;6.60;;;;;;;19.71;100.00;100911.97;2065207;28;20518;-72
2023/06/12 01:35:30;;;;;;;8.67;6.50;;;;;;;19.73;100.00;100917.88;2065244;28;20440;-72
2023/06/12 01:36:36;;;;;;;10.07;6.30;;;;;;;19.73;100.00;100911.47;2065217;28;20436;-72
2023/06/12 01:38:16;;;;;;;11.43;6.70;;;;;;;19.77;100.00;100920.50;2065142;28;20868;-72
2023/06/12 01:39:19;;;;;;;12.40;6.83;;;;;;;19.53;100.00;100875.66;2048470;28;20811;-72
2023/06/12 01:40:22;;;;;;;11.17;6.67;;;;;;;19.85;100.00;100916.78;2065255;28;20867;-72
2023/06/12 01:41:27;;;;;;;7.27;6.20;;;;;;;19.90;100.00;100910.47;2065191;28;20550;-72
2023/06/12 01:42:29;;;;;;;11.37;6.50;;;;;;;19.94;100.00;100915.88;2065148;28;20406;-72
2023/06/12 01:43:29;;;;;;;11.03;6.30;;;;;;;19.93;100.00;100915.13;2065294;28;20430;-72
2023/06/12 01:44:32;;;;;;;8.57;6.80;;;;;;;19.21;100.00;100811.25;2065234;28;20432;-72
2023/06/12 01:45:33;;;;;;;14.77;7.07;;;;;;;19.87;100.00;100911.47;2065181;28;20578;-72
2023/06/12 01:46:33;;;;;;;10.93;6.07;;;;;;;19.87;100.00;100908.66;2065173;28;20809;-72
2023/06/12 01:47:34;;;;;;;7.13;5.77;;;;;;;19.84;100.00;100906.00;2065301;28;20208;-72
2023/06/12 01:48:34;;;;;;;9.10;6.07;;;;;;;19.97;100.00;100915.69;2065144;28;20186;-72
2023/06/12 01:49:35;;;;;;;9.30;5.97;;;;;;;20.01;100.00;100918.31;2065050;28;20189;-72
2023/06/12 01:50:35;;;;;;;9.00;6.07;;;;;;;20.06;100.00;100918.38;2065111;28;20205;-72
2023/06/12 01:51:36;;;;;;;12.27;6.37;;;;;;;20.09;100.00;100916.63;2065169;28;20614;-72
2023/06/12 01:52:38;;;;;;;12.10;6.43;;;;;;;20.11;100.00;100917.69;2065173;28;20634;-72
2023/06/12 01:53:39;;;;;;;12.97;6.20;;;;;;;20.10;100.00;100909.75;2065265;28;20679;-72
2023/06/12 01:54:58;;;;;;;7.13;6.00;;;;;;;20.18;100.00;100908.84;2065103;28;20426;-72
2023/06/12 01:55:59;;;;;;;8.80;6.00;;;;;;;20.22;100.00;100917.09;2065151;28;20925;-72
2023/06/12 01:57:00;;;;;;;11.30;6.20;;;;;;;20.22;100.00;100909.41;2065081;28;20867;-72
2023/06/12 01:58:01;;;;;;;10.90;6.10;;;;;;;20.25;100.00;100905.63;2065236;28;20174;-72
2023/06/12 01:59:01;;;;;;;12.77;6.33;;;;;;;20.28;100.00;100912.31;2064429;28;21061;-72
2023/06/12 02:00:04;;;;;;;8.33;6.73;;;;;;;19.83;100.00;100834.94;2064601;28;20638;-72
2023/06/12 02:01:05;;;;;;;11.13;6.10;;;;;;;19.98;100.00;100857.38;2065037;28;20597;-72
2023/06/12 02:02:06;;;;;;;7.87;6.30;;;;;;;20.36;100.00;100905.00;2065127;28;20421;-72
2023/06/12 02:03:06;;;;;;;11.17;6.17;;;;;;;20.37;100.00;100900.91;2065109;28;20190;-73
2023/06/12 02:04:06;;;;;;;7.03;5.97;;;;;;;20.39;100.00;100901.19;2065060;28;20189;-72
2023/06/12 02:05:07;;;;;;;8.60;6.40;;;;;;;20.40;100.00;100911.16;2064601;28;20256;-72
2023/06/12 02:06:08;;;;;;;8.80;5.60;;;;;;;20.42;100.00;100905.84;2065108;28;20213;-72
2023/06/12 02:07:09;;;;;;;8.00;5.70;;;;;;;19.68;100.00;100800.50;2064808;28;20186;-72
2023/06/12 02:08:10;;;;;;;9.93;6.10;;;;;;;20.06;100.00;100859.28;2065076;28;20190;-72
2023/06/12 02:09:10;;;;;;;10.87;6.00;;;;;;;20.48;100.00;100903.88;2062875;28;20425;-72
2023/06/12 02:10:11;;;;;;;14.80;6.93;;;;;;;20.50;100.00;100907.72;2057053;28;20183;-72
2023/06/12 02:11:11;;;;;;;13.40;6.37;;;;;;;20.53;100.00;100906.72;2056967;28;20175;-72
2023/06/12 02:12:12;;;;;;;11.03;5.83;;;;;;;20.58;100.00;100905.25;2057073;28;20217;-72
2023/06/12 02:13:12;;;;;;;14.40;6.47;;;;;;;20.59;100.00;100906.81;2062440;28;20197;-72
2023/06/12 02:14:12;;;;;;;10.47;6.23;;;;;;;20.60;100.00;100903.50;2065140;28;20182;-72
2023/06/12 02:15:13;;;;;;;7.13;5.60;;;;;;;19.83;100.00;100783.53;2065061;28;20663;-72
2023/06/12 02:16:16;;;;;;;10.13;6.23;;;;;;;20.62;100.00;100905.81;2065103;28;20178;-72
2023/06/12 02:17:20;;;;;;;11.60;5.80;;;;;;;20.66;100.00;100907.16;2065160;28;20566;-72
2023/06/12 02:18:21;;;;;;;10.20;5.77;;;;;;;20.69;100.00;100903.34;2065087;28;20540;-72
2023/06/12 02:19:22;;;;;;;6.57;5.50;;;;;;;20.41;100.00;100868.47;2065053;28;20339;-72
2023/06/12 02:20:23;;;;;;;7.50;5.33;;;;;;;20.71;100.00;100912.06;2064939;28;20428;-73
2023/06/12 02:21:23;;;;;;;8.03;5.70;;;;;;;20.07;100.00;100818.66;2064878;28;21005;-73
2023/06/12 02:22:23;;;;;;;7.53;5.40;;;;;;;20.71;100.00;100916.91;2062582;28;20210;-72
2023/06/12 02:23:24;;;;;;;8.50;6.20;;;;;;;19.92;100.00;100797.47;2057013;28;20183;-73
2023/06/12 02:24:27;;;;;;;8.80;5.47;;;;;;;20.07;100.00;100815.06;2057051;28;20199;-72
2023/06/12 02:25:27;;;;;;;8.43;6.17;;;;;;;20.74;100.00;100918.75;2056753;28;20206;-73
2023/06/12 02:26:28;;;;;;;10.93;6.47;;;;;;;20.73;100.00;100917.97;2064387;28;21036;-73
2023/06/12 02:27:28;;;;;;;7.77;5.50;;;;;;;20.77;100.00;100918.53;2064350;28;20668;-73
2023/06/12 02:28:29;;;;;;;11.00;6.10;;;;;;;20.79;100.00;100913.19;2056947;28;20544;-72
2023/06/12 02:29:29;;;;;;;9.80;5.97;;;;;;;20.80;100.00;100925.22;2056925;28;20175;-73
2023/06/12 02:30:29;;;;;;;7.70;5.83;;;;;;;20.82;100.00;100922.69;2056972;28;20182;-73
2023/06/12 02:31:30;;;;;;;7.83;6.13;;;;;;;20.73;100.00;100917.97;2056928;28;20558;-72
2023/06/12 02:32:33;;;;;;;9.70;6.73;;;;;;;20.70;100.00;100923.81;2056980;28;20183;-72
2023/06/12 02:33:34;;;;;;;11.73;7.00;;;;;;;20.71;100.00;100922.56;2056973;28;20194;-72
2023/06/12 02:34:36;;;;;;;8.13;6.40;;;;;;;20.73;100.00;100928.47;2057323;28;20430;-72
2023/06/12 02:35:37;;;;;;;8.67;6.50;;;;;;;20.70;100.00;100929.47;2065861;28;20976;-73
2023/06/12 02:36:40;;;;;;;6.80;6.10;;;;;;;20.68;100.00;100920.75;2057903;28;20704;-72
2023/06/12 02:37:40;;;;;;;7.27;6.30;;;;;;;20.68;100.00;100926.38;2058045;28;20179;-72
2023/06/12 02:38:41;;;;;;;7.47;6.30;;;;;;;20.67;100.00;100925.59;2058506;28;20414;-72
2023/06/12 02:39:43;;;;;;;7.70;6.40;;;;;;;20.61;100.00;100919.13;2058488;28;20273;-73
2023/06/12 02:40:43;;;;;;;6.43;5.83;;;;;;;19.91;100.00;100810.75;2058532;28;20410;-73
2023/06/12 02:41:47;;;;;;;9.07;6.50;;;;;;;20.67;100.00;100919.19;2058638;28;20541;-73
2023/06/12 02:42:48;;;;;;;8.47;6.37;;;;;;;20.72;100.00;100924.13;2059430;28;20209;-73
2023/06/12 02:43:49;;;;;;;7.17;6.47;;;;;;;20.68;100.00;100926.38;2066717;28;20425;-73
2023/06/12 02:44:49;;;;;;;7.27;6.30;;;;;;;20.68;100.00;100929.94;2066569;28;20425;-73
2023/06/12 02:45:49;;;;;;;8.27;6.17;;;;;;;20.67;100.00;100930.47;2066229;28;20703;-73
2023/06/12 02:46:51;;;;;;;9.93;6.17;;;;;;;20.64;100.00;100923.78;2066276;28;20546;-73
2023/06/12 02:47:51;;;;;;;7.00;6.10;;;;;;;20.61;100.00;100921.16;2062174;28;20227;-73
2023/06/12 02:48:52;;;;;;;7.23;6.43;;;;;;;20.57;100.00;100915.75;2063833;28;20461;-73
2023/06/12 02:49:52;;;;;;;7.57;5.60;;;;;;;20.47;100.00;100916.41;2064637;28;20308;-73
2023/06/12 02:50:52;;;;;;;8.43;5.67;;;;;;;20.37;100.00;100903.72;2058184;28;20270;-73
2023/06/12 02:51:53;;;;;;;7.67;5.87;;;;;;;20.28;100.00;100913.09;2066304;28;20268;-73
2023/06/12 02:52:53;;;;;;;8.20;5.60;;;;;;;20.25;100.00;100918.91;2065128;28;20198;-73
2023/06/12 02:53:54;;;;;;;9.13;5.87;;;;;;;20.10;100.00;100915.38;2065317;28;20182;-74
2023/06/12 02:54:54;;;;;;;8.10;6.00;;;;;;;20.00;100.00;100916.75;2065960;28;20187;-74
2023/06/12 02:55:55;;;;;;;7.07;6.13;;;;;;;19.93;100.00;100914.34;2066890;28;20217;-74
2023/06/12 02:56:55;;;;;;;7.07;6.37;;;;;;;18.87;100.00;100783.84;2070883;28;20201;-74
2023/06/12 02:57:56;;;;;;;8.50;6.90;;;;;;;19.75;100.00;100918.16;2065814;28;20689;-73
2023/06/12 02:58:56;;;;;;;7.70;6.23;;;;;;;19.69;100.00;100925.75;2065500;28;20232;-73
2023/06/12 02:59:56;;;;;;;7.43;6.43;;;;;;;19.62;100.00;100928.19;2065902;28;20189;-73
2023/06/12 03:00:57;;;;;;;8.60;6.33;;;;;;;19.60;100.00;100934.28;2065080;28;20198;-74
2023/06/12 03:01:57;;;;;;;8.00;6.73;;;;;;;19.54;100.00;100933.41;2065827;28;20192;-74
2023/06/12 03:02:58;;;;;;;9.67;7.40;;;;;;;19.56;100.00;100941.38;2065638;28;20190;-74
2023/06/12 03:03:59;;;;;;;9.50;6.83;;;;;;;19.56;100.00;100936.53;2065769;28;20198;-74
2023/06/12 03:05:00;;;;;;;8.63;7.07;;;;;;;19.56;100.00;100942.16;2065439;28;20194;-74
2023/06/12 03:06:00;;;;;;;10.47;7.47;;;;;;;19.49;100.00;100927.72;2065270;28;20946;-74
2023/06/12 03:07:05;;;;;;;9.07;7.10;;;;;;;19.09;100.00;100860.84;2065633;28;20182;-74
2023/06/12 03:08:05;;;;;;;9.70;6.97;;;;;;;19.40;100.00;100903.28;2065433;28;20668;-74
2023/06/12 03:09:08;;;;;;;9.50;7.33;;;;;;;19.59;100.00;100929.94;2065749;28;20904;-74
2023/06/12 03:10:09;;;;;;;9.00;7.33;;;;;;;19.76;100.00;100949.88;2065781;28;20187;-74
2023/06/12 03:11:10;;;;;;;9.90;6.97;;;;;;;19.83;100.00;100958.69;2065026;28;20452;-74
2023/06/12 03:12:11;;;;;;;9.20;6.63;;;;;;;19.81;100.00;100955.56;2065745;28;20560;-74
2023/06/12 03:13:15;;;;;;;10.03;7.10;;;;;;;19.90;100.00;100957.53;2065396;28;20252;-74
2023/06/12 03:14:16;;;;;;;10.40;7.10;;;;;;;19.96;100.00;100961.94;2065812;28;20448;-74
2023/06/12 03:15:18;;;;;;;9.27;7.53;;;;;;;20.01;100.00;100963.31;2065202;28;20788;-74
2023/06/12 03:16:20;;;;;;;8.30;6.87;;;;;;;20.06;100.00;100957.75;2064934;28;20432;-74
2023/06/12 03:17:20;;;;;;;8.00;6.40;;;;;;;20.04;100.00;100963.09;2065645;28;20428;-74
2023/06/12 03:18:21;;;;;;;8.93;7.30;;;;;;;20.12;100.00;100963.50;2065949;28;20428;-74
2023/06/12 03:19:21;;;;;;;7.67;6.87;;;;;;;20.14;100.00;100964.56;2065257;28;20234;-74
2023/06/12 03:20:24;;;;;;;8.03;6.83;;;;;;;19.79;100.00;100917.97;2065481;28;20210;-74
2023/06/12 03:21:25;;;;;;;9.60;6.53;;;;;;;20.16;100.00;100970.47;2065369;28;20447;-75
2023/06/12 03:22:25;;;;;;;8.90;7.40;;;;;;;20.17;100.00;100965.63;2065583;28;20433;-74
2023/06/12 03:23:26;;;;;;;7.63;6.80;;;;;;;20.18;100.00;100961.53;2065387;28;21058;-74
2023/06/12 03:24:29;;;;;;;8.40;7.10;;;;;;;20.22;100.00;100967.75;2065679;28;20192;-74
2023/06/12 03:25:30;;;;;;;8.63;6.90;;;;;;;20.26;100.00;100971.13;2064836;28;20213;-74
2023/06/12 03:26:33;;;;;;;8.07;6.77;;;;;;;20.26;100.00;100963.44;2065307;28;20430;-74
2023/06/12 03:27:34;;;;;;;8.07;6.73;;;;;;;20.32;100.00;100961.47;2065628;28;20549;-74
2023/06/12 03:28:34;;;;;;;7.57;6.67;;;;;;;20.35;100.00;100962.53;2065641;28;20523;-74
2023/06/12 03:29:34;;;;;;;10.40;6.97;;;;;;;20.35;100.00;100957.69;2065312;28;20721;-74
2023/06/12 03:30:35;;;;;;;12.07;6.70;;;;;;;20.31;100.00;100956.38;2065118;28;20189;-74
2023/06/12 03:31:35;;;;;;;7.73;7.03;;;;;;;20.27;100.00;100959.38;2065420;28;20200;-74
2023/06/12 03:32:36;;;;;;;8.60;7.70;;;;;;;20.24;100.00;100960.38;2065481;28;20202;-74
2023/06/12 03:33:36;;;;;;;7.83;6.90;;;;;;;20.21;100.00;100958.50;2065313;28;20197;-74
2023/06/12 03:34:36;;;;;;;11.43;6.73;;;;;;;20.00;100.00;100939.25;2065380;28;20668;-74
2023/06/12 03:35:37;;;;;;;10.70;6.97;;;;;;;20.14;100.00;100960.97;2064805;28;20210;-74
2023/06/12 03:36:38;;;;;;;8.17;7.13;;;;;;;20.09;100.00;100965.25;2065190;28;20194;-74
2023/06/12 03:37:39;;;;;;;9.53;7.23;;;;;;;19.97;100.00;100957.09;2065488;28;20193;-74
2023/06/12 03:38:39;;;;;;;7.77;7.03;;;;;;;19.93;100.00;100968.56;2065255;28;20448;-74
2023/06/12 03:39:40;;;;;;;8.90;7.87;;;;;;;19.90;100.00;100965.97;2065295;28;20260;-74
2023/06/12 03:40:40;;;;;;;9.43;7.33;;;;;;;19.88;100.00;100979.72;2064760;28;20237;-74
2023/06/12 03:41:55;;;;;;;9.27;7.40;;;;;;;19.79;100.00;100969.34;2065332;28;20178;-74
2023/06/12 03:42:56;;;;;;;9.17;8.00;;;;;;;19.83;100.00;100977.59;2065261;28;20657;-74
2023/06/12 03:43:57;;;;;;;9.87;7.77;;;;;;;19.86;100.00;100985.06;2065186;28;20858;-74
2023/06/12 03:44:57;;;;;;;10.87;7.70;;;;;;;19.87;100.00;100981.78;2065131;28;20573;-74
2023/06/12 03:45:57;;;;;;;8.73;7.73;;;;;;;19.84;100.00;100982.75;2064286;28;20189;-74
2023/06/12 03:46:58;;;;;;;8.97;7.70;;;;;;;19.84;100.00;100982.75;2064769;28;20179;-74
2023/06/12 03:47:59;;;;;;;10.70;7.80;;;;;;;19.84;100.00;100982.75;2065266;28;20196;-74
2023/06/12 03:48:59;;;;;;;11.03;8.33;;;;;;;19.83;100.00;100978.38;2065228;28;20193;-74
2023/06/12 03:50:00;;;;;;;8.63;7.20;;;;;;;19.80;100.00;100981.41;2064955;28;20191;-74
2023/06/12 03:51:00;;;;;;;8.43;7.47;;;;;;;19.46;100.00;100943.53;2064763;28;20200;-75
2023/06/12 03:52:00;;;;;;;10.37;7.83;;;;;;;19.79;100.00;100991.06;2065886;28;20305;-59
2023/06/12 03:53:02;;;;;;;6.13;4.40;;;;;;;19.86;100.00;100976.63;2065181;28;20272;-59
2023/06/12 03:54:02;;;;;;;8.93;7.20;;;;;;;20.17;100.00;100982.50;2065602;28;20186;-59
2023/06/12 03:55:03;;;;;;;12.33;6.93;;;;;;;20.05;100.00;100955.44;2064903;28;21049;-60
2023/06/12 03:56:03;;;;;;;9.80;7.20;;;;;;;20.18;100.00;100986.88;2064100;28;20248;-62
2023/06/12 03:57:04;;;;;;;8.33;7.40;;;;;;;20.12;100.00;100986.78;2065394;28;20573;-59
2023/06/12 03:58:04;;;;;;;9.77;7.83;;;;;;;20.11;100.00;100990.84;2065453;28;20192;-59
2023/06/12 03:59:05;;;;;;;8.53;7.60;;;;;;;20.10;100.00;100991.34;2065303;28;20198;-59
2023/06/12 04:00:06;;;;;;;10.37;8.23;;;;;;;20.06;100.00;100990.75;2065676;28;20174;-59
2023/06/12 04:01:07;;;;;;;10.47;8.47;;;;;;;20.07;100.00;100990.28;2064820;28;20194;-59
2023/06/12 04:02:07;;;;;;;10.40;6.73;;;;;;;20.08;100.00;100993.88;2066225;28;20425;-59
2023/06/12 04:03:08;;;;;;;14.47;4.77;;;;;;;20.17;100.00;100994.53;2057379;28;20195;-61
2023/06/12 04:04:10;;;;;;;9.63;4.20;;;;;;;20.62;100.00;100990.31;2064777;28;20217;-61
2023/06/12 04:05:10;;;;;;;6.23;3.93;;;;;;;20.99;100.00;100985.66;2064860;28;20441;-60
2023/06/12 04:06:11;;;;;;;8.20;4.40;;;;;;;21.20;100.00;100965.41;2065871;28;20421;-60
2023/06/12 04:07:13;;;;;;;6.63;4.40;;;;;;;21.50;100.00;100972.34;2068828;28;20209;-61
2023/06/12 04:08:13;;;;;;;6.27;3.80;;;;;;;21.71;100.00;100927.94;2063990;28;20711;-60
2023/06/12 04:09:15;;;;;;;6.00;4.10;;;;;;;21.64;100.00;100880.44;2064864;28;20796;-59
2023/06/12 04:10:16;;;;;;;13.20;4.60;;;;;;;22.40;100.00;100955.56;2065251;28;20177;-60
2023/06/12 04:11:18;;;;;;;9.53;4.17;;;;;;;22.48;100.00;100954.63;2072527;28;20941;-63
2023/06/12 04:12:19;;;;;;;7.40;3.67;;;;;;;22.71;100.00;100955.47;2065523;28;20198;-62
2023/06/12 04:13:19;;;;;;;6.37;4.07;;;;;;;22.84;100.00;100953.75;2065237;28;20421;-63
2023/06/12 04:14:20;;;;;;;5.97;4.70;;;;;;;22.95;100.00;100950.16;2065121;28;20249;-62
2023/06/12 04:15:21;;;;;;;7.33;4.97;;;;;;;23.00;100.00;100946.59;2066572;28;20193;-64
2023/06/12 04:16:21;;;;;;;7.73;4.07;;;;;;;23.10;100.00;100948.69;2064605;28;20194;-64
2023/06/12 04:17:23;;;;;;;5.13;4.10;;;;;;;23.01;100.00;100917.03;2064896;28;20628;-60
2023/06/12 04:18:23;;;;;;;7.20;5.17;;;;;;;23.34;100.00;100946.16;2060352;28;20222;-62
2023/06/12 04:19:24;;;;;;;14.03;7.27;;;;;;;23.34;100.00;100948.97;2065167;28;20230;-61
2023/06/12 04:20:29;;;;;;;8.87;6.23;;;;;;;22.90;100.00;100872.56;2065712;28;20222;-62
2023/06/12 04:21:32;;;;;;;9.10;5.93;;;;;;;23.24;100.00;100935.63;2066323;28;20221;-60
2023/06/12 04:22:33;;;;;;;8.30;5.03;;;;;;;23.20;100.00;100943.56;2065351;28;20174;-61
2023/06/12 04:23:37;;;;;;;9.87;5.33;;;;;;;23.21;100.00;100934.59;2065155;28;20417;-60
2023/06/12 04:24:38;;;;;;;7.47;5.13;;;;;;;23.26;100.00;100933.03;2064103;28;20284;-61
2023/06/12 04:25:42;;;;;;;5.37;4.77;;;;;;;22.87;100.00;100884.13;2063334;28;20206;-60
2023/06/12 04:26:44;;;;;;;6.60;5.60;;;;;;;22.29;100.00;100808.69;2063628;28;20194;-73
2023/06/12 04:27:45;;;;;;;7.53;5.87;;;;;;;22.90;100.00;100885.91;2053229;28;20734;-60
2023/06/12 04:28:46;;;;;;;8.47;5.90;;;;;;;23.21;100.00;100933.81;2064302;28;20472;-61
2023/06/12 04:29:46;;;;;;;8.63;5.90;;;;;;;23.17;100.00;100931.19;2064553;28;20583;-60
2023/06/12 04:30:47;;;;;;;9.93;6.07;;;;;;;23.09;100.00;100937.88;2059387;28;20229;-61
2023/06/12 04:31:49;;;;;;;9.80;5.97;;;;;;;23.16;100.00;100932.50;2063264;28;20562;-60
2023/06/12 04:32:50;;;;;;;10.63;5.53;;;;;;;23.11;100.00;100929.63;2064370;28;20182;-61
2023/06/12 04:33:51;;;;;;;8.97;5.80;;;;;;;23.03;100.00;100935.03;2064375;28;20185;-60
2023/06/12 04:34:52;;;;;;;7.97;5.57;;;;;;;22.99;100.00;100934.53;2064017;28;20631;-61
2023/06/12 04:35:53;;;;;;;8.83;5.13;;;;;;;23.03;100.00;100931.44;2064035;28;20659;-61
2023/06/12 04:36:53;;;;;;;8.20;5.53;;;;;;;23.05;100.00;100937.34;2055157;28;20556;-62
2023/06/12 04:37:54;;;;;;;7.53;5.67;;;;;;;22.70;100.00;100869.97;2063826;28;20707;-62
2023/06/12 04:38:56;;;;;;;9.63;4.80;;;;;;;23.14;100.00;100937.09;2064177;28;20182;-61
2023/06/12 04:39:57;;;;;;;12.17;10.73;;;;;;;23.21;100.00;100926.09;2063672;28;20202;-60
2023/06/12 04:40:58;;;;;;;12.30;10.33;;;;;;;23.03;100.00;100926.53;2062981;28;20202;-61
2023/06/12 04:41:59;;;;;;;8.97;7.87;;;;;;;23.15;100.00;100930.16;2060581;28;20260;-60
2023/06/12 04:42:59;;;;;;;15.73;9.07;;;;;;;23.20;100.00;100926.59;2058656;28;20296;-61
2023/06/12 04:44:00;;;;;;;10.20;7.37;;;;;;;23.26;100.00;100936.66;2064659;28;20178;-60